Flight Track Log - Related Links

Times and Time Zones

All times are in EDT time to prevent confusion due to time zone crossing. See the FLG3853 flight status page for this flight to view local times or setup timezone preferences in your user account.

Time Position Orientation Groundspeed Altitude Reporting Facility
EDT Latitude Longitude Course Direction KTS MPH feet Rate Location/Type
Sat 11:33:49 AM 44.8500 -93.2333 205° Southwest 160 184 2,400  Level Minneapolis TRACON
Sat 11:34:49 AM 44.8000 -93.2667 205° Southwest 212 244 4,500 2,200 Climbing Minneapolis TRACON
Sat 11:35:49 AM 44.7500 -93.3167 215° Southwest 263 303 6,800 2,600 Climbing Minneapolis TRACON
Sat 11:36:49 AM 44.6833 -93.3833 215° Southwest 281 323 9,700 2,560 Climbing Minneapolis TRACON
Sat 11:38:19 AM 44.5925 -93.4614 211° Southwest 288 331 13,200 2,424 Climbing Minneapolis Center
Sat 11:39:20 AM 44.5086 -93.5417 214° Southwest 303 349 15,800 2,439 Climbing Minneapolis Center
Sat 11:40:22 AM 44.4350 -93.6122 214° Southwest 317 365 18,200 2,195 Climbing Minneapolis Center
Sat 11:41:23 AM 44.3544 -93.6794 211° Southwest 335 386 20,300 1,918 Climbing Minneapolis Center
Sat 11:42:24 AM 44.2722 -93.7456 210° Southwest 341 392 22,100 1,672 Climbing Minneapolis Center
Sat 11:43:25 AM 44.1869 -93.8144 210° Southwest 354 407 23,700 1,561 Climbing Minneapolis Center
Sat 11:44:27 AM 44.0983 -93.8844 210° Southwest 365 420 25,300 1,512 Climbing Minneapolis Center
Sat 11:45:28 AM 44.0089 -93.9556 210° Southwest 367 422 26,800 1,426 Climbing Minneapolis Center
Sat 11:46:29 AM 43.9167 -94.0294 210° Southwest 377 434 28,200 1,317 Climbing Minneapolis Center
Sat 11:47:31 AM 43.8050 -94.1194 210° Southwest 386 444 29,500 1,171 Climbing Minneapolis Center
Sat 11:48:32 AM 43.7081 -94.1942 209° Southwest 395 455 30,600 738 Climbing Minneapolis Center
Sat 11:49:33 AM 43.5933 -94.2292 192° South 435 501 31,000 195 Climbing Minneapolis Center
Sat 11:50:35 AM 43.4742 -94.2367 183° South 444 511 31,000  Level Minneapolis Center
Sat 11:51:36 AM 43.3536 -94.2456 183° South 431 496 31,000  Level Minneapolis Center
Sat 11:52:37 AM 43.2414 -94.2522 182° South 425 489 31,000  Level Minneapolis Center
Sat 11:53:39 AM 43.1219 -94.2606 183° South 429 494 31,000  Level Minneapolis Center
Sat 11:54:40 AM 42.9792 -94.2708 183° South 431 496 31,000  Level Minneapolis Center
Sat 11:55:42 AM 42.8633 -94.2333 167° South 451 519 31,000  Level Minneapolis Center
Sat 11:56:43 AM 42.8172 -94.0644 110° East 486 559 31,000  Level Minneapolis Center
Sat 11:57:44 AM 42.7919 -93.8778 100° East 498 573 31,000  Level Minneapolis Center
Sat 11:58:46 AM 42.7656 -93.6906 101° East 506 582 31,000  Level Minneapolis Center
Sat 11:59:47 AM 42.7397 -93.5058 101° East 506 582 31,000  Level Minneapolis Center
Sat 12:00:48 PM 42.7075 -93.2900 101° East 495 570 31,000  Level Minneapolis Center
Sat 12:01:50 PM 42.6817 -93.1058 101° East 496 571 31,000  Level Minneapolis Center
Sat 12:02:48 PM 42.6531 -92.9206 102° East 499 574 31,000  Level Chicago Center
Sat 12:03:49 PM 42.6253 -92.7336 101° East 509 586 31,000  Level Chicago Center
Sat 12:04:50 PM 42.5972 -92.5511 102° East 501 577 31,000  Level Chicago Center
Sat 12:05:52 PM 42.5694 -92.3617 101° East 514 592 31,000  Level Chicago Center
Sat 12:06:53 PM 42.5417 -92.1811 102° East 504 580 31,000  Level Chicago Center
Sat 12:07:55 PM 42.5242 -92.0036 98° East 491 565 31,000  Level Chicago Center
Sat 12:08:56 PM 42.5256 -91.7928 89° East 477 549 31,000  Level Chicago Center
Sat 12:09:57 PM 42.5258 -91.6244 90° East 459 528 31,000  Level Chicago Center
Sat 12:10:59 PM 42.5267 -91.4561 90° East 459 528 31,000  Level Chicago Center
Sat 12:12:00 PM 42.5264 -91.2922 90° East 451 519 31,000  Level Chicago Center
Sat 12:13:02 PM 42.5125 -91.1261 96° East 467 537 31,000 -829 Level Chicago Center
Sat 12:14:03 PM 42.4372 -90.9408 119° Southeast 472 543 29,300 -1,707 Descending Chicago Center
Sat 12:15:05 PM 42.3714 -90.7781 119° Southeast 490 564 27,500 -1,756 Descending Chicago Center
Sat 12:16:06 PM 42.3072 -90.6172 118° Southeast 493 567 25,700 -2,098 Descending Chicago Center
Sat 12:17:08 PM 42.2442 -90.4586 118° Southeast 488 562 23,200 -2,613 Descending Chicago Center
Sat 12:18:10 PM 42.1817 -90.3061 119° Southeast 476 548 20,300 -2,927 Descending Chicago Center
Sat 12:19:11 PM 42.1208 -90.1597 119° Southeast 459 528 17,200 -3,268 Descending Chicago Center
Sat 12:20:13 PM 42.0547 -89.9947 118° Southeast 423 487 13,600 -2,049 Descending Chicago Center
Sat 12:21:14 PM 42.0031 -89.8717 119° Southeast 392 451 13,000 -488 Descending Chicago Center
Sat 12:22:16 PM 41.9506 -89.7428 119° Southeast 392 451 12,600 -1,016 Descending Chicago Center
Sat 12:23:18 PM 41.8961 -89.6122 119° Southeast 400 460 10,900 -1,317 Descending Chicago Center
Sat 12:24:19 PM 41.8472 -89.4947 119° Southeast 369 425 9,900 -439 Descending Chicago Center
Sat 12:25:21 PM 41.7975 -89.3747 119° Southeast 368 423 10,000  Climbing Chicago Center
Sat 12:26:23 PM 41.7375 -89.2322 119° Southeast 368 423 9,900  Descending Chicago Center
Sat 12:27:24 PM 41.6858 -89.1128 120° Southeast 368 423 10,000 49 Climbing Chicago Center
Sat 12:28:26 PM 41.6364 -88.9964 120° Southeast 368 423 10,000 48 Level Chicago Center
Sat 12:29:28 PM 41.5919 -88.8789 117° Southeast 359 413 10,100 48 Climbing Chicago Center
Sat 12:30:30 PM 41.6072 -88.7136 83° East 386 444 10,100 -49 Level Chicago Center
Sat 12:31:31 PM 41.6183 -88.5692 84° East 389 448 10,000  Descending Chicago Center
Sat 12:32:33 PM 41.6739 -88.4431 59° Northeast 396 456 10,100  Climbing Chicago Center
Sat 12:33:35 PM 41.7397 -88.3119 56° Northeast 393 452 10,000 -581 Descending Chicago Center
Sat 12:34:37 PM 41.7894 -88.2081 57° Northeast 336 387 8,900 -919 Descending Chicago Center
Sat 12:35:39 PM 41.8292 -88.0983 64° Northeast 330 380 8,100 -878 Descending Chicago Center
Sat 12:36:40 PM 41.8589 -87.9753 72° East 324 373 7,100 -488 Descending Chicago Center
Sat 12:37:42 PM 41.8853 -87.8714 71° East 296 341 7,100 -290 Level Chicago Center
Sat 12:38:44 PM 41.8897 -87.7764 86° East 262 302 6,500 -1,210 Descending Chicago Center
Sat 12:39:46 PM 41.9206 -87.6908 64° Northeast 268 308 4,600 -1,694 Descending Chicago Center
Sat 12:40:48 PM 41.9628 -87.7417 318° Northwest 222 255 3,000 -1,355 Descending Chicago Center
Sat 12:41:50 PM 41.9650 -87.8119 272° West 192 221 1,800 -976 Descending Chicago Center
Sat 12:42:51 PM 41.9653 -87.8725 270° West 156 180 1,000 -488 Descending Chicago Center
Sat 12:43:53 PM 41.9642 -87.9283 268° West 156 180 800 -194 Descending Chicago Center

Login

Don't have an account? Register now (free) for customized features, flight alerts, and more!